createdAt,value
2022-10-22T00:09:13.409Z,0
2022-10-22T00:18:50.666Z,0
2022-10-22T00:28:28.753Z,0
2022-10-22T00:38:07.332Z,0
2022-10-22T00:47:43.833Z,0
2022-10-22T00:57:23.376Z,0
2022-10-22T01:06:59.849Z,0
2022-10-22T01:16:36.638Z,0
2022-10-22T01:45:28.789Z,0
2022-10-22T01:55:07.750Z,0
2022-10-22T02:04:43.888Z,0
2022-10-22T02:14:24.054Z,0
2022-10-22T02:23:58.842Z,0
2022-10-22T02:33:39.050Z,0
2022-10-22T02:43:15.043Z,0
2022-10-22T02:52:51.750Z,0
2022-10-22T03:02:29.500Z,0
2022-10-22T03:12:06.040Z,0
2022-10-22T03:31:20.808Z,0
2022-10-22T03:40:59.780Z,0
2022-10-22T03:50:35.854Z,0
2022-10-22T04:00:13.468Z,0
2022-10-22T04:09:50.566Z,0
2022-10-22T04:19:27.371Z,0
2022-10-22T04:29:04.740Z,0
2022-10-22T04:48:19.517Z,0
2022-10-22T04:57:56.985Z,0
2022-10-22T05:17:11.559Z,0
2022-10-22T05:26:47.931Z,0
2022-10-22T06:05:19.839Z,0
2022-10-22T06:14:55.778Z,0
2022-10-22T06:24:32.856Z,0
2022-10-22T06:34:11.719Z,0
2022-10-22T06:43:47.679Z,0
2022-10-22T07:03:04.612Z,0
2022-10-22T07:12:43.042Z,0
2022-10-22T07:31:58.371Z,0
2022-10-22T07:41:34.011Z,0
2022-10-22T07:51:14.668Z,0
2022-10-22T08:00:49.922Z,0
2022-10-22T08:10:28.787Z,0
2022-10-22T08:29:46.444Z,0
2022-10-22T08:39:22.762Z,0
2022-10-22T08:49:00.490Z,1
2022-10-22T08:58:38.761Z,0
2022-10-22T09:08:17.610Z,0
2022-10-22T09:17:52.559Z,0
2022-10-22T09:27:29.658Z,0
2022-10-22T09:37:09.355Z,0
2022-10-22T09:46:47.440Z,0
2022-10-22T09:56:23.972Z,0
2022-10-22T10:06:03.192Z,0
2022-10-22T10:15:39.164Z,0
2022-10-22T10:25:16.956Z,0
2022-10-22T10:45:10.391Z,3
2022-10-22T10:55:07.078Z,7
2022-10-22T11:14:22.671Z,6
2022-10-22T11:24:07.375Z,6
2022-10-22T11:33:26.538Z,7
2022-10-22T11:52:49.028Z,2
2022-10-22T12:12:14.758Z,7
2022-10-22T12:21:33.551Z,1
2022-10-22T12:59:43.693Z,2
2022-10-22T13:29:17.369Z,5
2022-10-22T13:38:55.766Z,4
2022-10-22T13:48:32.513Z,5
2022-10-22T14:17:21.900Z,4
2022-10-22T14:36:37.492Z,1
2022-10-22T15:05:15.481Z,0
2022-10-22T15:14:47.792Z,0
2022-10-22T15:24:22.811Z,0
2022-10-22T15:34:01.615Z,0
2022-10-22T15:43:33.714Z,0
2022-10-22T16:02:48.818Z,0
2022-10-22T16:12:22.632Z,0
2022-10-22T16:31:36.005Z,0
2022-10-22T16:50:50.905Z,0
2022-10-22T17:00:26.589Z,0
2022-10-22T17:10:04.345Z,0
2022-10-22T17:29:15.944Z,0
2022-10-22T17:38:52.763Z,0
2022-10-22T17:48:29.814Z,0
2022-10-22T18:26:59.451Z,0
2022-10-22T18:36:36.061Z,0
2022-10-22T18:46:14.739Z,0
2022-10-22T18:55:50.049Z,0
2022-10-22T19:05:27.261Z,0
2022-10-22T19:15:03.628Z,0
2022-10-22T19:34:19.316Z,0
2022-10-22T19:43:56.805Z,0
2022-10-22T19:53:31.994Z,0
2022-10-22T20:12:46.837Z,0
2022-10-22T20:32:04.388Z,0
2022-10-22T20:41:42.598Z,0
2022-10-22T20:51:16.718Z,0
2022-10-22T21:00:54.086Z,0
2022-10-22T21:10:32.335Z,0
2022-10-22T21:20:08.047Z,0
2022-10-22T21:29:44.559Z,0
2022-10-22T21:39:20.763Z,0
2022-10-22T21:48:58.923Z,0
2022-10-22T21:58:34.827Z,0
2022-10-22T22:08:11.626Z,0
2022-10-22T22:27:25.405Z,0
2022-10-22T22:37:04.405Z,0
2022-10-22T22:46:39.532Z,0
2022-10-22T22:56:16.894Z,0
2022-10-22T23:05:53.822Z,0
2022-10-22T23:15:31.974Z,0
2022-10-22T23:54:02.022Z,0
